Terminal Aerodrome Forecast
Issued by NWS Shreveport, LA

Home | Current Version | Previous Version | Text Only | Print | Product List | Glossary On
Versions: 1 2 3 4 5 6 7 8 9 10 11 12
000
FTUS44 KSHV 170541
TAFTXK
TAF
KTXK 170541Z 1706/1806 05004KT 4SM SHRA BR SCT015 OVC035
      TEMPO 1706/1708 2SM SHRA BR SCT007 OVC015
     FM170800 09004KT 4SM SHRA BR OVC007
      TEMPO 1708/1710 3SM SHRA BR SCT007 OVC015
     FM171000 10003KT 6SM BR OVC007
      TEMPO 1710/1714 3SM BR OVC004
     FM171400 11003KT 4SM BR OVC003
     FM171600 14003KT 6SM BR OVC005
     FM171800 VRB03KT P6SM OVC007=

USA.gov is the U.S. government's official web portal to all federal, state and local government web resources and services.